createdAt,value
2022-09-04T00:02:17.932Z,2.77
2022-09-04T00:04:59.244Z,2.83
2022-09-04T00:07:30.596Z,2.97
2022-09-04T00:10:11.280Z,2.70
2022-09-04T00:12:45.842Z,3.00
2022-09-04T00:15:19.422Z,2.60
2022-09-04T00:17:55.292Z,2.80
2022-09-04T00:20:35.377Z,2.70
2022-09-04T00:23:10.129Z,2.40
2022-09-04T00:25:44.455Z,2.90
2022-09-04T00:28:18.173Z,2.57
2022-09-04T00:30:54.700Z,2.47
2022-09-04T00:33:31.150Z,2.50
2022-09-04T00:36:04.140Z,2.80
2022-09-04T00:38:42.479Z,3.10
2022-09-04T00:41:22.144Z,2.73
2022-09-04T00:44:17.031Z,2.53
2022-09-04T00:47:09.416Z,2.67
2022-09-04T00:50:11.052Z,3.70
2022-09-04T00:52:59.368Z,2.60
2022-09-04T00:55:48.037Z,2.80
2022-09-04T00:58:36.850Z,2.87
2022-09-04T01:01:05.465Z,2.47
2022-09-04T01:03:48.398Z,3.00
2022-09-04T01:06:32.493Z,2.80
2022-09-04T01:09:42.344Z,3.00
2022-09-04T01:12:22.933Z,2.90
2022-09-04T01:14:58.439Z,2.30
2022-09-04T01:17:33.597Z,2.70
2022-09-04T01:20:11.078Z,3.40
2022-09-04T01:23:21.477Z,3.00
2022-09-04T01:26:07.686Z,2.37
2022-09-04T01:28:45.202Z,3.30
2022-09-04T01:31:25.516Z,2.60
2022-09-04T01:34:06.233Z,2.57
2022-09-04T01:36:42.705Z,3.03
2022-09-04T01:39:10.704Z,3.00
2022-09-04T01:41:46.564Z,2.83
2022-09-04T01:44:14.899Z,2.83
2022-09-04T01:46:51.543Z,2.70
2022-09-04T01:49:32.149Z,2.83
2022-09-04T01:52:10.866Z,3.13
2022-09-04T01:54:49.253Z,2.40
2022-09-04T01:57:32.921Z,2.77
2022-09-04T02:00:07.974Z,2.70
2022-09-04T02:02:48.850Z,2.90
2022-09-04T02:05:27.567Z,2.90
2022-09-04T02:08:06.228Z,2.50
2022-09-04T02:10:42.114Z,2.70
2022-09-04T02:13:17.639Z,3.10
2022-09-04T02:15:55.980Z,2.77
2022-09-04T02:18:36.062Z,2.83
2022-09-04T02:21:08.636Z,2.67
2022-09-04T02:23:42.785Z,2.70
2022-09-04T02:26:16.889Z,3.10
2022-09-04T02:28:56.988Z,3.27
2022-09-04T02:31:33.987Z,3.37
2022-09-04T02:34:09.388Z,3.20
2022-09-04T02:36:44.016Z,3.00
2022-09-04T02:39:27.571Z,2.70
2022-09-04T02:42:05.119Z,2.83
2022-09-04T02:44:46.071Z,2.80
2022-09-04T02:47:23.744Z,2.70
2022-09-04T02:50:02.761Z,2.87
2022-09-04T02:52:43.151Z,3.37
2022-09-04T02:55:25.011Z,3.00
2022-09-04T02:58:01.729Z,2.63
2022-09-04T03:00:41.439Z,3.40
2022-09-04T03:03:15.311Z,3.57
2022-09-04T03:05:49.013Z,2.90
2022-09-04T03:08:21.185Z,2.80
2022-09-04T03:10:56.297Z,2.97
2022-09-04T03:13:31.232Z,3.43
2022-09-04T03:16:09.234Z,3.07
2022-09-04T03:18:54.639Z,3.03
2022-09-04T03:21:30.143Z,3.03
2022-09-04T03:24:06.650Z,2.67
2022-09-04T03:26:38.019Z,2.67
2022-09-04T03:29:14.293Z,2.67
2022-09-04T03:31:49.686Z,2.67
2022-09-04T03:34:32.137Z,3.40
2022-09-04T03:37:13.826Z,3.03
2022-09-04T03:39:53.181Z,2.93
2022-09-04T03:42:31.384Z,3.40
2022-09-04T03:45:13.426Z,3.03
2022-09-04T03:47:50.592Z,3.17
2022-09-04T03:50:29.434Z,3.23
2022-09-04T03:53:07.400Z,3.40
2022-09-04T03:56:01.489Z,2.97
2022-09-04T03:58:38.117Z,3.40
2022-09-04T04:01:13.724Z,3.00
2022-09-04T04:03:58.713Z,2.93
2022-09-04T04:06:35.319Z,3.10
2022-09-04T04:09:31.556Z,4.03
2022-09-04T04:12:13.720Z,3.50
2022-09-04T04:14:57.052Z,2.90
2022-09-04T04:17:48.185Z,3.10
2022-09-04T04:20:26.879Z,3.40
2022-09-04T04:23:17.832Z,3.67
2022-09-04T04:26:00.706Z,3.22
2022-09-04T04:28:59.653Z,3.47
2022-09-04T04:31:39.355Z,3.17
2022-09-04T04:34:16.915Z,2.70
2022-09-04T04:36:53.506Z,3.50
2022-09-04T04:39:30.380Z,3.23
2022-09-04T04:42:13.547Z,3.75
2022-09-04T04:45:22.535Z,3.20
2022-09-04T04:48:20.788Z,3.70
2022-09-04T04:51:00.743Z,3.43
2022-09-04T04:53:36.562Z,3.40
2022-09-04T04:56:15.332Z,3.40
2022-09-04T04:58:59.277Z,2.90
2022-09-04T05:01:36.877Z,3.13
2022-09-04T05:04:15.155Z,3.30
2022-09-04T05:06:50.395Z,3.30
2022-09-04T05:09:26.751Z,2.97
2022-09-04T05:12:00.287Z,3.20
2022-09-04T05:14:40.835Z,3.50
2022-09-04T05:17:21.024Z,3.00
2022-09-04T05:19:53.747Z,3.60
2022-09-04T05:22:26.675Z,3.33
2022-09-04T05:25:08.944Z,3.23
2022-09-04T05:27:52.528Z,3.40
2022-09-04T05:30:29.279Z,3.67
2022-09-04T05:33:05.250Z,3.90
2022-09-04T05:35:43.423Z,3.20
2022-09-04T05:38:17.094Z,3.40
2022-09-04T05:41:07.512Z,3.00
2022-09-04T05:43:51.926Z,3.00
2022-09-04T05:46:31.754Z,3.40
2022-09-04T05:49:04.025Z,3.10
2022-09-04T05:52:14.340Z,3.70
2022-09-04T05:55:24.144Z,3.77
2022-09-04T05:58:10.869Z,3.90
2022-09-04T06:00:48.304Z,4.23
2022-09-04T06:03:38.536Z,4.40
2022-09-04T06:06:13.474Z,3.53
2022-09-04T06:09:08.603Z,3.80
2022-09-04T06:12:02.901Z,4.00
2022-09-04T06:14:44.890Z,3.43
2022-09-04T06:17:27.233Z,3.67
2022-09-04T06:20:17.207Z,3.20
2022-09-04T06:23:21.976Z,3.83
2022-09-04T06:26:13.217Z,3.50
2022-09-04T06:29:04.898Z,3.70
2022-09-04T06:32:20.314Z,3.80
2022-09-04T06:35:09.183Z,3.60
2022-09-04T06:37:44.493Z,3.27
2022-09-04T06:40:28.661Z,3.83
2022-09-04T06:43:09.297Z,3.80
2022-09-04T06:45:49.347Z,3.60
2022-09-04T06:48:28.965Z,4.10
2022-09-04T06:51:09.336Z,3.90
2022-09-04T06:53:43.672Z,3.70
2022-09-04T06:56:28.721Z,3.40
2022-09-04T06:59:23.640Z,3.70
2022-09-04T07:02:02.964Z,3.77
2022-09-04T07:04:44.747Z,3.83
2022-09-04T07:07:22.779Z,3.85
2022-09-04T07:09:59.876Z,4.18
2022-09-04T07:12:54.296Z,4.13
2022-09-04T07:15:39.959Z,5.10
2022-09-04T07:18:20.267Z,4.22
2022-09-04T07:20:59.519Z,4.22
2022-09-04T07:23:35.947Z,3.60
2022-09-04T07:26:17.259Z,3.70
2022-09-04T07:29:25.997Z,3.50
2022-09-04T07:32:01.915Z,3.40
2022-09-04T07:34:38.777Z,3.23
2022-09-04T07:37:23.332Z,3.73
2022-09-04T07:39:58.806Z,3.53
2022-09-04T07:42:32.701Z,3.80
2022-09-04T07:45:05.968Z,4.50
2022-09-04T07:47:40.479Z,4.10
2022-09-04T07:50:13.876Z,3.33
2022-09-04T07:53:04.828Z,3.60
2022-09-04T07:55:41.030Z,3.40
2022-09-04T07:58:37.167Z,3.40
2022-09-04T08:01:26.821Z,3.10
2022-09-04T08:04:15.059Z,2.87
2022-09-04T08:06:47.171Z,2.90
2022-09-04T08:09:40.957Z,3.57
2022-09-04T08:12:31.817Z,2.97
2022-09-04T08:15:10.591Z,2.93
2022-09-04T08:17:56.817Z,3.23
2022-09-04T08:20:39.757Z,3.07
2022-09-04T08:23:24.573Z,3.05
2022-09-04T08:26:02.923Z,3.03
2022-09-04T08:28:46.863Z,3.40
2022-09-04T08:31:22.243Z,3.20
2022-09-04T08:34:10.194Z,3.10
2022-09-04T08:36:46.280Z,2.50
2022-09-04T08:39:22.501Z,3.00
2022-09-04T08:42:29.990Z,3.20
2022-09-04T08:45:28.128Z,3.17
2022-09-04T08:48:39.446Z,2.90
2022-09-04T08:51:34.185Z,3.10
2022-09-04T08:54:34.542Z,2.85
2022-09-04T08:57:45.121Z,3.13
2022-09-04T09:00:16.104Z,3.03
2022-09-04T09:03:35.064Z,3.65
2022-09-04T09:06:49.955Z,3.20
2022-09-04T09:09:51.542Z,3.40
2022-09-04T09:12:42.156Z,3.67
2022-09-04T09:15:34.137Z,3.23
2022-09-04T09:18:04.008Z,2.70
2022-09-04T09:20:46.172Z,2.90
2022-09-04T09:23:20.600Z,3.70
2022-09-04T09:26:06.223Z,2.80
2022-09-04T09:29:13.521Z,3.33
2022-09-04T09:32:21.807Z,3.40
2022-09-04T09:35:16.697Z,3.30
2022-09-04T09:38:14.753Z,3.27
2022-09-04T09:41:05.225Z,3.22
2022-09-04T09:44:01.846Z,2.63
2022-09-04T09:46:50.706Z,2.83
2022-09-04T09:50:06.061Z,3.00
2022-09-04T09:52:58.749Z,2.90
2022-09-04T09:56:18.309Z,2.60
2022-09-04T09:59:05.899Z,2.90
2022-09-04T10:01:46.716Z,3.00
2022-09-04T10:04:28.638Z,2.80
2022-09-04T10:07:38.924Z,2.63
2022-09-04T10:10:34.497Z,2.70
2022-09-04T10:13:20.230Z,2.90
2022-09-04T10:16:03.148Z,2.63
2022-09-04T10:19:00.224Z,2.43
2022-09-04T10:22:00.681Z,2.50
2022-09-04T10:24:50.040Z,2.83
2022-09-04T10:27:43.986Z,2.43
2022-09-04T10:30:16.050Z,2.50
2022-09-04T10:33:11.889Z,2.57
2022-09-04T10:36:00.785Z,2.30
2022-09-04T10:38:59.700Z,2.40
2022-09-04T10:41:50.908Z,2.63
2022-09-04T10:44:57.264Z,2.60
2022-09-04T10:47:44.966Z,2.40
2022-09-04T10:50:27.285Z,2.53
2022-09-04T10:53:21.418Z,2.20
2022-09-04T10:56:05.888Z,2.87
2022-09-04T10:58:47.127Z,2.40
2022-09-04T11:01:48.258Z,2.83
2022-09-04T11:04:38.425Z,2.20
2022-09-04T11:07:31.221Z,2.07
2022-09-04T11:10:28.911Z,2.23
2022-09-04T11:13:40.503Z,2.40
2022-09-04T11:16:41.147Z,2.07
2022-09-04T11:19:44.300Z,1.90
2022-09-04T11:22:44.259Z,2.43
2022-09-04T11:25:42.700Z,2.00
2022-09-04T11:28:41.079Z,2.07
2022-09-04T11:31:31.340Z,2.00
2022-09-04T11:34:44.276Z,2.47
2022-09-04T11:37:44.256Z,2.20
2022-09-04T11:40:33.249Z,2.38
2022-09-04T11:43:23.554Z,2.43
2022-09-04T11:46:16.116Z,2.00
2022-09-04T11:49:09.257Z,2.57
2022-09-04T11:52:16.004Z,2.60
2022-09-04T11:55:22.316Z,2.07
2022-09-04T11:58:05.360Z,1.90
2022-09-04T12:00:43.907Z,2.20
2022-09-04T12:03:52.566Z,2.40
2022-09-04T12:06:39.964Z,2.43
2022-09-04T12:09:39.692Z,1.83
2022-09-04T12:12:49.902Z,2.03
2022-09-04T12:16:04.518Z,2.10
2022-09-04T12:19:09.393Z,2.23
2022-09-04T12:22:00.533Z,1.90
2022-09-04T12:25:08.171Z,2.10
2022-09-04T12:28:15.774Z,2.30
2022-09-04T12:31:02.851Z,2.40
2022-09-04T12:34:01.254Z,2.10
2022-09-04T12:37:02.028Z,1.93
2022-09-04T12:39:50.290Z,2.37
2022-09-04T12:42:23.747Z,2.10
2022-09-04T12:45:03.355Z,2.10
2022-09-04T12:47:47.616Z,2.60
2022-09-04T12:50:30.900Z,1.70
2022-09-04T12:53:19.168Z,2.03
2022-09-04T12:55:53.686Z,1.90
2022-09-04T12:58:31.208Z,2.17
2022-09-04T13:01:13.731Z,2.10
2022-09-04T13:03:50.155Z,1.70
2022-09-04T13:06:27.413Z,1.98
2022-09-04T13:09:07.662Z,1.63
2022-09-04T13:11:49.611Z,1.95
2022-09-04T13:14:37.828Z,2.17
2022-09-04T13:17:17.835Z,2.10
2022-09-04T13:19:54.950Z,2.05
2022-09-04T13:22:34.410Z,1.93
2022-09-04T13:25:13.141Z,1.93
2022-09-04T13:27:53.601Z,1.60
2022-09-04T13:30:24.456Z,2.10
2022-09-04T13:33:11.239Z,1.70
2022-09-04T13:36:00.989Z,2.00
2022-09-04T13:38:54.206Z,1.90
2022-09-04T13:42:04.286Z,1.73
2022-09-04T13:44:54.979Z,2.00
2022-09-04T13:47:29.709Z,2.23
2022-09-04T13:50:08.490Z,1.80
2022-09-04T13:52:43.600Z,2.00
2022-09-04T13:55:17.936Z,1.73
2022-09-04T13:57:57.437Z,1.90
2022-09-04T14:00:25.891Z,1.93
2022-09-04T14:03:00.075Z,2.00
2022-09-04T14:05:29.772Z,2.10
2022-09-04T14:08:03.889Z,2.27
2022-09-04T14:10:56.812Z,1.80
2022-09-04T14:13:42.071Z,2.23
2022-09-04T14:16:11.538Z,1.77
2022-09-04T14:19:15.005Z,1.93
2022-09-04T14:22:04.591Z,2.03
2022-09-04T14:24:42.029Z,2.10
2022-09-04T14:27:18.460Z,2.00
2022-09-04T14:29:57.599Z,2.20
2022-09-04T14:32:32.251Z,1.67
2022-09-04T14:35:10.396Z,1.80
2022-09-04T14:38:07.325Z,1.80
2022-09-04T14:40:40.002Z,2.03
2022-09-04T14:43:22.301Z,2.20
2022-09-04T14:46:02.587Z,1.87
2022-09-04T14:48:33.590Z,2.03
2022-09-04T14:51:17.283Z,2.00
2022-09-04T14:53:49.881Z,2.03
2022-09-04T14:56:32.513Z,1.50
2022-09-04T14:59:09.210Z,2.00
2022-09-04T15:01:40.566Z,2.20
2022-09-04T15:04:15.248Z,1.90
2022-09-04T15:07:07.780Z,1.83
2022-09-04T15:09:38.500Z,2.10
2022-09-04T15:12:24.757Z,2.15
2022-09-04T15:14:58.419Z,1.90
2022-09-04T15:17:29.310Z,1.90
2022-09-04T15:20:01.834Z,2.10
2022-09-04T15:22:37.778Z,2.00
2022-09-04T15:25:08.976Z,1.97
2022-09-04T15:27:46.721Z,1.88
2022-09-04T15:30:21.024Z,1.93
2022-09-04T15:32:50.449Z,2.33
2022-09-04T15:35:24.256Z,2.30
2022-09-04T15:38:05.774Z,2.03
2022-09-04T15:40:36.911Z,2.07
2022-09-04T15:43:21.139Z,1.93
2022-09-04T15:45:59.671Z,2.00
2022-09-04T15:48:43.823Z,2.13
2022-09-04T15:51:19.904Z,1.83
2022-09-04T15:53:54.706Z,2.20
2022-09-04T15:56:34.805Z,2.10
2022-09-04T15:59:12.106Z,2.10
2022-09-04T16:01:49.683Z,2.30
2022-09-04T16:04:26.353Z,1.90
2022-09-04T16:06:58.820Z,2.07
2022-09-04T16:09:34.144Z,2.23
2022-09-04T16:12:11.473Z,2.50
2022-09-04T16:14:46.205Z,2.40
2022-09-04T16:17:20.092Z,1.90
2022-09-04T16:19:53.730Z,1.90
2022-09-04T16:22:34.973Z,1.87
2022-09-04T16:25:10.969Z,1.90
2022-09-04T16:27:46.364Z,1.97
2022-09-04T16:30:35.453Z,1.80
2022-09-04T16:33:12.864Z,1.90
2022-09-04T16:35:50.601Z,1.93
2022-09-04T16:38:24.216Z,1.80
2022-09-04T16:40:56.738Z,1.80
2022-09-04T16:43:28.694Z,1.70
2022-09-04T16:46:08.889Z,1.83
2022-09-04T16:48:44.157Z,2.20
2022-09-04T16:51:39.738Z,2.63
2022-09-04T16:54:17.920Z,2.77
2022-09-04T16:56:50.153Z,2.58
2022-09-04T16:59:30.002Z,3.17
2022-09-04T17:02:02.518Z,3.00
2022-09-04T17:04:40.188Z,3.40
2022-09-04T17:07:15.948Z,3.43
2022-09-04T17:09:58.651Z,3.80
2022-09-04T17:12:38.922Z,2.63
2022-09-04T17:15:17.350Z,2.97
2022-09-04T17:17:47.288Z,2.90
2022-09-04T17:20:26.507Z,2.30
2022-09-04T17:29:04.238Z,2.60
2022-09-04T17:29:14.606Z,2.30
2022-09-04T17:29:34.687Z,3.27
2022-09-04T17:31:58.043Z,2.80
2022-09-04T17:40:32.261Z,2.83
2022-09-04T17:40:43.589Z,2.40
2022-09-04T17:41:34.558Z,2.70
2022-09-04T17:43:42.741Z,3.30
2022-09-04T17:46:24.548Z,3.03
2022-09-04T17:48:53.442Z,2.30
2022-09-04T17:51:26.685Z,2.70
2022-09-04T17:53:58.109Z,2.05
2022-09-04T17:56:31.609Z,2.13
2022-09-04T17:59:05.281Z,2.70
2022-09-04T18:01:40.726Z,2.70
2022-09-04T18:04:22.616Z,2.65
2022-09-04T18:07:00.230Z,2.57
2022-09-04T18:09:36.798Z,2.27
2022-09-04T18:12:13.692Z,2.40
2022-09-04T18:14:50.130Z,2.72
2022-09-04T18:17:36.109Z,2.80
2022-09-04T18:20:13.901Z,2.37
2022-09-04T18:23:26.302Z,2.70
2022-09-04T18:26:00.542Z,2.27
2022-09-04T18:28:33.833Z,2.80
2022-09-04T18:37:07.302Z,2.30
2022-09-04T18:37:24.432Z,2.10
2022-09-04T18:37:40.119Z,2.80
2022-09-04T18:40:05.352Z,2.60
2022-09-04T18:50:20.701Z,2.40
2022-09-04T18:50:35.291Z,2.70
2022-09-04T18:50:47.147Z,2.65
2022-09-04T18:51:25.109Z,2.30
2022-09-04T18:53:57.620Z,2.23
2022-09-04T18:56:29.602Z,2.43
2022-09-04T18:59:08.397Z,2.38
2022-09-04T19:01:42.147Z,2.93
2022-09-04T19:04:35.180Z,2.60
2022-09-04T19:07:08.231Z,2.40
2022-09-04T19:09:56.419Z,2.47
2022-09-04T19:12:35.914Z,1.90
2022-09-04T19:15:36.952Z,2.67
2022-09-04T19:18:14.473Z,2.90
2022-09-04T19:20:48.824Z,2.53
2022-09-04T19:23:25.377Z,2.93
2022-09-04T19:25:55.571Z,2.37
2022-09-04T19:28:29.533Z,3.13
2022-09-04T19:31:02.770Z,2.00
2022-09-04T19:33:39.591Z,2.47
2022-09-04T19:36:12.738Z,2.70
2022-09-04T19:45:52.055Z,2.83
2022-09-04T19:46:04.665Z,2.80
2022-09-04T19:46:11.717Z,3.00
2022-09-04T19:47:29.413Z,2.70
2022-09-04T19:53:21.839Z,3.10
2022-09-04T19:53:31.540Z,2.53
2022-09-04T19:55:55.747Z,2.80
2022-09-04T19:58:29.326Z,3.00
2022-09-04T20:00:59.258Z,2.90
2022-09-04T20:03:34.086Z,2.73
2022-09-04T20:06:19.815Z,2.83
2022-09-04T20:08:53.923Z,2.65
2022-09-04T20:11:34.830Z,3.03
2022-09-04T20:14:14.392Z,2.43
2022-09-04T20:16:50.940Z,2.50
2022-09-04T20:19:27.759Z,2.70
2022-09-04T20:22:00.958Z,3.03
2022-09-04T20:24:39.599Z,2.58
2022-09-04T20:27:15.581Z,2.70
2022-09-04T20:29:54.481Z,2.90
2022-09-04T20:32:26.577Z,2.53
2022-09-04T20:35:13.708Z,2.90
2022-09-04T20:37:45.620Z,2.63
2022-09-04T20:40:27.052Z,2.90
2022-09-04T20:43:11.229Z,3.10
2022-09-04T20:51:13.787Z,2.90
2022-09-04T20:52:53.684Z,2.80
2022-09-04T20:52:54.738Z,2.97
2022-09-04T20:54:50.890Z,3.10
2022-09-04T21:00:16.837Z,3.33
2022-09-04T21:03:22.835Z,2.43
2022-09-04T21:03:27.899Z,3.20
2022-09-04T21:06:11.567Z,2.97
2022-09-04T21:08:48.441Z,2.83
2022-09-04T21:11:39.197Z,3.30
2022-09-04T21:14:15.530Z,3.30
2022-09-04T21:17:02.773Z,3.50
2022-09-04T21:20:17.583Z,3.10
2022-09-04T21:22:59.165Z,3.00
2022-09-04T21:25:42.001Z,3.50
2022-09-04T21:28:30.817Z,3.30
2022-09-04T21:31:16.368Z,2.80
2022-09-04T21:34:02.871Z,3.17
2022-09-04T21:36:38.041Z,3.47
2022-09-04T21:39:38.210Z,3.40
2022-09-04T21:42:22.781Z,3.50
2022-09-04T21:45:23.147Z,3.33
2022-09-04T21:48:18.071Z,3.43
2022-09-04T21:51:04.904Z,3.50
2022-09-04T21:54:23.328Z,3.33
2022-09-04T22:02:28.727Z,3.67
2022-09-04T22:02:45.674Z,3.57
2022-09-04T22:03:35.990Z,3.30
2022-09-04T22:06:14.236Z,3.43
2022-09-04T22:13:29.533Z,3.57
2022-09-04T22:13:31.196Z,3.80
2022-09-04T22:14:55.751Z,3.03
2022-09-04T22:17:55.052Z,3.60
2022-09-04T22:20:44.394Z,4.00
2022-09-04T22:23:42.268Z,3.67
2022-09-04T22:26:40.784Z,3.50
2022-09-04T22:29:25.637Z,4.03
2022-09-04T22:32:44.345Z,3.70
2022-09-04T22:35:37.207Z,3.33
2022-09-04T22:38:32.668Z,3.10
2022-09-04T22:41:19.285Z,3.55
2022-09-04T22:43:58.577Z,3.80
2022-09-04T22:46:47.900Z,3.60
2022-09-04T22:49:32.476Z,3.40
2022-09-04T22:52:26.028Z,3.30
2022-09-04T22:55:22.991Z,4.10
2022-09-04T22:58:09.821Z,3.10
2022-09-04T23:01:02.475Z,3.53
2022-09-04T23:03:44.982Z,3.90
2022-09-04T23:11:46.683Z,3.87
2022-09-04T23:13:47.724Z,3.43
2022-09-04T23:14:00.284Z,3.47
2022-09-04T23:16:24.917Z,3.57
2022-09-04T23:26:32.772Z,3.53
2022-09-04T23:26:36.126Z,3.07
2022-09-04T23:26:39.477Z,3.80
2022-09-04T23:28:27.837Z,4.07
2022-09-04T23:31:12.453Z,3.87
2022-09-04T23:34:01.544Z,3.50
2022-09-04T23:36:58.132Z,3.80
2022-09-04T23:40:03.495Z,3.87
2022-09-04T23:42:54.560Z,4.40
2022-09-04T23:45:55.240Z,4.53
2022-09-04T23:48:48.016Z,3.55
2022-09-04T23:51:27.851Z,4.13
2022-09-04T23:54:46.330Z,3.80
2022-09-04T23:57:26.219Z,4.10
